sensor_id;sensor_type;location;lat;lon;timestamp;P1;durP1;ratioP1;P2;durP2;ratioP2
26908;SDS011;14477;51.038;4.588;2022-09-03T00:01:58;2.13;;;1.20;;
26908;SDS011;14477;51.038;4.588;2022-09-03T00:04:38;1.30;;;1.20;;
26908;SDS011;14477;51.038;4.588;2022-09-03T00:07:18;2.42;;;1.20;;
26908;SDS011;14477;51.038;4.588;2022-09-03T00:09:47;1.20;;;1.00;;
26908;SDS011;14477;51.038;4.588;2022-09-03T00:12:21;1.27;;;0.90;;
26908;SDS011;14477;51.038;4.588;2022-09-03T00:14:52;1.95;;;1.10;;
26908;SDS011;14477;51.038;4.588;2022-09-03T00:17:24;1.23;;;1.00;;
26908;SDS011;14477;51.038;4.588;2022-09-03T00:19:59;2.15;;;1.20;;
26908;SDS011;14477;51.038;4.588;2022-09-03T00:22:32;3.28;;;1.10;;
26908;SDS011;14477;51.038;4.588;2022-09-03T00:25:02;1.77;;;1.10;;
26908;SDS011;14477;51.038;4.588;2022-09-03T00:27:32;1.67;;;1.08;;
26908;SDS011;14477;51.038;4.588;2022-09-03T00:30:05;1.80;;;1.10;;
26908;SDS011;14477;51.038;4.588;2022-09-03T00:32:50;1.42;;;1.05;;
26908;SDS011;14477;51.038;4.588;2022-09-03T00:35:31;1.23;;;1.10;;
26908;SDS011;14477;51.038;4.588;2022-09-03T00:38:01;2.27;;;1.10;;
26908;SDS011;14477;51.038;4.588;2022-09-03T00:40:46;2.13;;;1.02;;
26908;SDS011;14477;51.038;4.588;2022-09-03T00:43:28;2.00;;;1.13;;
26908;SDS011;14477;51.038;4.588;2022-09-03T00:46:14;1.90;;;1.10;;
26908;SDS011;14477;51.038;4.588;2022-09-03T00:55:01;1.75;;;1.10;;
26908;SDS011;14477;51.038;4.588;2022-09-03T01:00:23;2.38;;;1.20;;
26908;SDS011;14477;51.038;4.588;2022-09-03T01:13:38;1.95;;;1.02;;
26908;SDS011;14477;51.038;4.588;2022-09-03T01:24:58;2.25;;;1.13;;
26908;SDS011;14477;51.038;4.588;2022-09-03T01:28:26;1.38;;;1.10;;
26908;SDS011;14477;51.038;4.588;2022-09-03T01:30:32;1.33;;;1.20;;
26908;SDS011;14477;51.038;4.588;2022-09-03T01:49:42;2.47;;;1.10;;
26908;SDS011;14477;51.038;4.588;2022-09-03T01:52:21;1.77;;;1.20;;
26908;SDS011;14477;51.038;4.588;2022-09-03T01:55:12;1.27;;;1.17;;
26908;SDS011;14477;51.038;4.588;2022-09-03T01:58:04;1.40;;;1.30;;
26908;SDS011;14477;51.038;4.588;2022-09-03T02:00:44;1.75;;;1.10;;
26908;SDS011;14477;51.038;4.588;2022-09-03T02:03:14;2.00;;;1.20;;
26908;SDS011;14477;51.038;4.588;2022-09-03T02:05:41;1.30;;;1.20;;
26908;SDS011;14477;51.038;4.588;2022-09-03T02:08:08;1.58;;;1.20;;
26908;SDS011;14477;51.038;4.588;2022-09-03T02:10:45;2.97;;;1.10;;
26908;SDS011;14477;51.038;4.588;2022-09-03T02:13:20;1.70;;;1.13;;
26908;SDS011;14477;51.038;4.588;2022-09-03T02:15:47;1.90;;;1.20;;
26908;SDS011;14477;51.038;4.588;2022-09-03T02:18:15;1.80;;;1.27;;
26908;SDS011;14477;51.038;4.588;2022-09-03T02:20:44;1.48;;;1.38;;
26908;SDS011;14477;51.038;4.588;2022-09-03T02:23:12;2.37;;;1.20;;
26908;SDS011;14477;51.038;4.588;2022-09-03T02:25:47;3.22;;;1.30;;
26908;SDS011;14477;51.038;4.588;2022-09-03T02:28:16;1.70;;;1.25;;
26908;SDS011;14477;51.038;4.588;2022-09-03T02:30:42;1.45;;;1.10;;
26908;SDS011;14477;51.038;4.588;2022-09-03T02:33:07;2.60;;;1.10;;
26908;SDS011;14477;51.038;4.588;2022-09-03T02:35:34;2.17;;;1.20;;
26908;SDS011;14477;51.038;4.588;2022-09-03T02:38:21;2.00;;;1.20;;
26908;SDS011;14477;51.038;4.588;2022-09-03T02:40:49;1.45;;;1.13;;
26908;SDS011;14477;51.038;4.588;2022-09-03T02:43:23;2.58;;;1.23;;
26908;SDS011;14477;51.038;4.588;2022-09-03T02:45:58;2.30;;;1.48;;
26908;SDS011;14477;51.038;4.588;2022-09-03T02:48:28;1.50;;;1.30;;
26908;SDS011;14477;51.038;4.588;2022-09-03T02:50:54;1.90;;;1.27;;
26908;SDS011;14477;51.038;4.588;2022-09-03T02:53:19;1.50;;;1.23;;
26908;SDS011;14477;51.038;4.588;2022-09-03T02:55:45;2.50;;;1.37;;
26908;SDS011;14477;51.038;4.588;2022-09-03T02:58:11;1.63;;;1.23;;
26908;SDS011;14477;51.038;4.588;2022-09-03T03:00:37;1.45;;;1.17;;
26908;SDS011;14477;51.038;4.588;2022-09-03T03:03:03;1.83;;;1.30;;
26908;SDS011;14477;51.038;4.588;2022-09-03T03:05:34;1.58;;;1.20;;
26908;SDS011;14477;51.038;4.588;2022-09-03T03:08:12;2.10;;;1.30;;
26908;SDS011;14477;51.038;4.588;2022-09-03T03:10:45;1.55;;;1.20;;
26908;SDS011;14477;51.038;4.588;2022-09-03T03:13:12;1.38;;;1.20;;
26908;SDS011;14477;51.038;4.588;2022-09-03T03:15:38;1.27;;;1.17;;
26908;SDS011;14477;51.038;4.588;2022-09-03T03:18:04;1.45;;;1.20;;
26908;SDS011;14477;51.038;4.588;2022-09-03T03:20:31;1.30;;;1.10;;
26908;SDS011;14477;51.038;4.588;2022-09-03T03:23:00;1.40;;;1.30;;
26908;SDS011;14477;51.038;4.588;2022-09-03T03:25:26;1.90;;;1.40;;
26908;SDS011;14477;51.038;4.588;2022-09-03T03:27:53;2.70;;;1.48;;
26908;SDS011;14477;51.038;4.588;2022-09-03T03:30:21;3.13;;;1.40;;
26908;SDS011;14477;51.038;4.588;2022-09-03T03:32:47;1.30;;;1.20;;
26908;SDS011;14477;51.038;4.588;2022-09-03T03:35:13;1.77;;;1.30;;
26908;SDS011;14477;51.038;4.588;2022-09-03T03:37:39;2.03;;;1.20;;
26908;SDS011;14477;51.038;4.588;2022-09-03T03:40:05;2.93;;;1.30;;
26908;SDS011;14477;51.038;4.588;2022-09-03T03:42:32;1.40;;;1.20;;
26908;SDS011;14477;51.038;4.588;2022-09-03T03:44:59;2.00;;;1.48;;
26908;SDS011;14477;51.038;4.588;2022-09-03T03:47:26;2.05;;;1.20;;
26908;SDS011;14477;51.038;4.588;2022-09-03T03:49:55;1.40;;;1.17;;
26908;SDS011;14477;51.038;4.588;2022-09-03T03:52:22;2.08;;;1.20;;
26908;SDS011;14477;51.038;4.588;2022-09-03T03:54:49;1.95;;;1.30;;
26908;SDS011;14477;51.038;4.588;2022-09-03T03:57:15;1.92;;;1.30;;
26908;SDS011;14477;51.038;4.588;2022-09-03T03:59:43;1.50;;;1.13;;
26908;SDS011;14477;51.038;4.588;2022-09-03T04:02:10;1.30;;;1.10;;
26908;SDS011;14477;51.038;4.588;2022-09-03T04:04:36;1.35;;;1.20;;
26908;SDS011;14477;51.038;4.588;2022-09-03T04:07:02;1.35;;;1.25;;
26908;SDS011;14477;51.038;4.588;2022-09-03T04:09:28;1.20;;;1.00;;
26908;SDS011;14477;51.038;4.588;2022-09-03T04:11:54;1.80;;;1.23;;
26908;SDS011;14477;51.038;4.588;2022-09-03T04:14:22;1.90;;;1.20;;
26908;SDS011;14477;51.038;4.588;2022-09-03T04:16:48;1.40;;;1.17;;
26908;SDS011;14477;51.038;4.588;2022-09-03T04:19:15;1.93;;;1.20;;
26908;SDS011;14477;51.038;4.588;2022-09-03T04:21:41;2.17;;;1.30;;
26908;SDS011;14477;51.038;4.588;2022-09-03T04:24:08;1.55;;;1.40;;
26908;SDS011;14477;51.038;4.588;2022-09-03T04:26:34;2.33;;;1.27;;
26908;SDS011;14477;51.038;4.588;2022-09-03T04:29:01;1.83;;;1.20;;
26908;SDS011;14477;51.038;4.588;2022-09-03T04:31:28;1.63;;;1.20;;
26908;SDS011;14477;51.038;4.588;2022-09-03T04:33:54;1.98;;;1.30;;
26908;SDS011;14477;51.038;4.588;2022-09-03T04:36:21;2.13;;;1.27;;
26908;SDS011;14477;51.038;4.588;2022-09-03T04:38:49;1.50;;;1.30;;
26908;SDS011;14477;51.038;4.588;2022-09-03T04:41:22;1.55;;;1.23;;
26908;SDS011;14477;51.038;4.588;2022-09-03T04:43:54;1.20;;;1.10;;
26908;SDS011;14477;51.038;4.588;2022-09-03T04:46:21;1.77;;;1.25;;
26908;SDS011;14477;51.038;4.588;2022-09-03T04:48:50;1.70;;;1.20;;
26908;SDS011;14477;51.038;4.588;2022-09-03T04:51:19;1.30;;;1.20;;
26908;SDS011;14477;51.038;4.588;2022-09-03T04:53:46;1.50;;;1.35;;
26908;SDS011;14477;51.038;4.588;2022-09-03T04:58:44;1.85;;;1.35;;
26908;SDS011;14477;51.038;4.588;2022-09-03T05:01:11;1.57;;;1.33;;
26908;SDS011;14477;51.038;4.588;2022-09-03T05:03:40;1.50;;;1.20;;
26908;SDS011;14477;51.038;4.588;2022-09-03T05:06:06;1.90;;;1.20;;
26908;SDS011;14477;51.038;4.588;2022-09-03T05:08:33;1.67;;;1.20;;
26908;SDS011;14477;51.038;4.588;2022-09-03T05:11:01;1.40;;;1.30;;
26908;SDS011;14477;51.038;4.588;2022-09-03T05:13:28;1.20;;;1.10;;
26908;SDS011;14477;51.038;4.588;2022-09-03T05:15:57;2.05;;;1.50;;
26908;SDS011;14477;51.038;4.588;2022-09-03T05:18:25;1.83;;;1.42;;
26908;SDS011;14477;51.038;4.588;2022-09-03T05:20:56;1.50;;;1.20;;
26908;SDS011;14477;51.038;4.588;2022-09-03T05:23:23;1.58;;;1.30;;
26908;SDS011;14477;51.038;4.588;2022-09-03T05:25:59;1.77;;;1.40;;
26908;SDS011;14477;51.038;4.588;2022-09-03T05:28:27;1.30;;;1.17;;
26908;SDS011;14477;51.038;4.588;2022-09-03T05:31:01;1.65;;;1.20;;
26908;SDS011;14477;51.038;4.588;2022-09-03T05:33:29;1.40;;;1.23;;
26908;SDS011;14477;51.038;4.588;2022-09-03T05:36:05;5.13;;;1.30;;
26908;SDS011;14477;51.038;4.588;2022-09-03T05:38:33;1.58;;;1.20;;
26908;SDS011;14477;51.038;4.588;2022-09-03T05:41:00;1.60;;;1.13;;
26908;SDS011;14477;51.038;4.588;2022-09-03T05:43:28;1.80;;;1.20;;
26908;SDS011;14477;51.038;4.588;2022-09-03T05:45:58;1.83;;;1.40;;
26908;SDS011;14477;51.038;4.588;2022-09-03T05:48:30;2.65;;;1.30;;
26908;SDS011;14477;51.038;4.588;2022-09-03T05:51:01;2.88;;;1.30;;
26908;SDS011;14477;51.038;4.588;2022-09-03T05:53:32;1.50;;;1.30;;
26908;SDS011;14477;51.038;4.588;2022-09-03T05:56:00;2.00;;;1.10;;
26908;SDS011;14477;51.038;4.588;2022-09-03T05:58:33;2.20;;;1.13;;
26908;SDS011;14477;51.038;4.588;2022-09-03T06:03:37;1.40;;;1.20;;
26908;SDS011;14477;51.038;4.588;2022-09-03T06:06:02;2.60;;;1.20;;
26908;SDS011;14477;51.038;4.588;2022-09-03T06:08:29;1.92;;;1.20;;
26908;SDS011;14477;51.038;4.588;2022-09-03T06:10:58;2.23;;;1.20;;
26908;SDS011;14477;51.038;4.588;2022-09-03T06:13:25;2.78;;;1.20;;
26908;SDS011;14477;51.038;4.588;2022-09-03T06:16:01;2.63;;;1.17;;
26908;SDS011;14477;51.038;4.588;2022-09-03T06:18:29;1.37;;;1.00;;
26908;SDS011;14477;51.038;4.588;2022-09-03T06:20:56;2.13;;;1.20;;
26908;SDS011;14477;51.038;4.588;2022-09-03T06:23:24;2.65;;;1.30;;
26908;SDS011;14477;51.038;4.588;2022-09-03T06:26:01;2.67;;;1.15;;
26908;SDS011;14477;51.038;4.588;2022-09-03T06:28:34;2.67;;;1.17;;
26908;SDS011;14477;51.038;4.588;2022-09-03T06:31:02;2.70;;;1.13;;
26908;SDS011;14477;51.038;4.588;2022-09-03T06:33:30;1.58;;;1.30;;
26908;SDS011;14477;51.038;4.588;2022-09-03T06:35:57;2.75;;;1.20;;
26908;SDS011;14477;51.038;4.588;2022-09-03T06:38:28;1.50;;;1.15;;
26908;SDS011;14477;51.038;4.588;2022-09-03T06:40:56;1.27;;;1.10;;
26908;SDS011;14477;51.038;4.588;2022-09-03T06:43:28;1.30;;;1.13;;
26908;SDS011;14477;51.038;4.588;2022-09-03T06:45:59;2.15;;;1.20;;
26908;SDS011;14477;51.038;4.588;2022-09-03T06:48:26;2.35;;;1.02;;
26908;SDS011;14477;51.038;4.588;2022-09-03T06:50:59;2.45;;;1.10;;
26908;SDS011;14477;51.038;4.588;2022-09-03T06:53:45;1.20;;;1.00;;
26908;SDS011;14477;51.038;4.588;2022-09-03T06:56:13;1.03;;;0.93;;
26908;SDS011;14477;51.038;4.588;2022-09-03T06:58:50;1.77;;;1.00;;
26908;SDS011;14477;51.038;4.588;2022-09-03T07:01:18;1.55;;;1.10;;
26908;SDS011;14477;51.038;4.588;2022-09-03T07:03:46;3.80;;;1.10;;
26908;SDS011;14477;51.038;4.588;2022-09-03T07:06:17;1.27;;;1.10;;
26908;SDS011;14477;51.038;4.588;2022-09-03T07:08:45;1.50;;;1.03;;
26908;SDS011;14477;51.038;4.588;2022-09-03T07:11:12;1.88;;;1.20;;
26908;SDS011;14477;51.038;4.588;2022-09-03T07:13:41;1.35;;;1.20;;
26908;SDS011;14477;51.038;4.588;2022-09-03T07:16:09;2.35;;;1.08;;
26908;SDS011;14477;51.038;4.588;2022-09-03T07:18:43;2.17;;;1.20;;
26908;SDS011;14477;51.038;4.588;2022-09-03T07:21:19;3.30;;;1.10;;
26908;SDS011;14477;51.038;4.588;2022-09-03T07:23:47;2.80;;;1.23;;
26908;SDS011;14477;51.038;4.588;2022-09-03T07:26:14;2.55;;;1.20;;
26908;SDS011;14477;51.038;4.588;2022-09-03T07:28:42;2.28;;;1.20;;
26908;SDS011;14477;51.038;4.588;2022-09-03T07:31:11;1.40;;;1.20;;
26908;SDS011;14477;51.038;4.588;2022-09-03T07:33:39;2.40;;;1.00;;
26908;SDS011;14477;51.038;4.588;2022-09-03T07:36:13;1.30;;;1.10;;
26908;SDS011;14477;51.038;4.588;2022-09-03T07:38:40;2.70;;;1.20;;
26908;SDS011;14477;51.038;4.588;2022-09-03T07:41:09;2.20;;;1.20;;
26908;SDS011;14477;51.038;4.588;2022-09-03T07:43:36;1.80;;;1.30;;
26908;SDS011;14477;51.038;4.588;2022-09-03T07:46:08;1.20;;;1.10;;
26908;SDS011;14477;51.038;4.588;2022-09-03T07:48:38;1.73;;;1.10;;
26908;SDS011;14477;51.038;4.588;2022-09-03T07:51:08;2.38;;;1.20;;
26908;SDS011;14477;51.038;4.588;2022-09-03T07:53:34;1.80;;;1.25;;
26908;SDS011;14477;51.038;4.588;2022-09-03T07:56:01;1.40;;;1.30;;
26908;SDS011;14477;51.038;4.588;2022-09-03T07:58:32;2.15;;;1.27;;
26908;SDS011;14477;51.038;4.588;2022-09-03T08:01:02;1.27;;;1.10;;
26908;SDS011;14477;51.038;4.588;2022-09-03T08:03:31;1.45;;;1.20;;
26908;SDS011;14477;51.038;4.588;2022-09-03T08:06:04;2.00;;;1.33;;
26908;SDS011;14477;51.038;4.588;2022-09-03T08:08:31;1.98;;;1.30;;
26908;SDS011;14477;51.038;4.588;2022-09-03T08:11:10;1.92;;;1.27;;
26908;SDS011;14477;51.038;4.588;2022-09-03T08:13:38;2.20;;;1.20;;
26908;SDS011;14477;51.038;4.588;2022-09-03T08:16:08;1.73;;;1.23;;
26908;SDS011;14477;51.038;4.588;2022-09-03T08:18:38;1.30;;;1.20;;
26908;SDS011;14477;51.038;4.588;2022-09-03T08:21:11;1.58;;;1.30;;
26908;SDS011;14477;51.038;4.588;2022-09-03T08:23:40;1.50;;;1.40;;
26908;SDS011;14477;51.038;4.588;2022-09-03T08:26:08;1.30;;;1.20;;
26908;SDS011;14477;51.038;4.588;2022-09-03T08:28:34;1.40;;;1.30;;
26908;SDS011;14477;51.038;4.588;2022-09-03T08:33:38;1.35;;;1.15;;
26908;SDS011;14477;51.038;4.588;2022-09-03T08:36:15;2.08;;;1.40;;
26908;SDS011;14477;51.038;4.588;2022-09-03T08:38:49;1.30;;;1.20;;
26908;SDS011;14477;51.038;4.588;2022-09-03T08:41:21;1.17;;;1.10;;
26908;SDS011;14477;51.038;4.588;2022-09-03T08:55:28;1.80;;;1.30;;
26908;SDS011;14477;51.038;4.588;2022-09-03T08:58:02;1.40;;;1.30;;
26908;SDS011;14477;51.038;4.588;2022-09-03T09:06:09;1.60;;;1.30;;
26908;SDS011;14477;51.038;4.588;2022-09-03T09:08:58;2.33;;;1.60;;
26908;SDS011;14477;51.038;4.588;2022-09-03T09:12:09;2.38;;;1.55;;
26908;SDS011;14477;51.038;4.588;2022-09-03T09:15:25;2.28;;;1.52;;
26908;SDS011;14477;51.038;4.588;2022-09-03T09:18:24;1.88;;;1.60;;
26908;SDS011;14477;51.038;4.588;2022-09-03T09:21:32;2.00;;;1.60;;
26908;SDS011;14477;51.038;4.588;2022-09-03T09:24:56;1.80;;;1.60;;
26908;SDS011;14477;51.038;4.588;2022-09-03T09:27:13;2.38;;;1.52;;
26908;SDS011;14477;51.038;4.588;2022-09-03T09:29:45;2.83;;;2.00;;
26908;SDS011;14477;51.038;4.588;2022-09-03T09:32:13;1.88;;;1.45;;
26908;SDS011;14477;51.038;4.588;2022-09-03T09:34:41;1.88;;;1.70;;
26908;SDS011;14477;51.038;4.588;2022-09-03T09:37:12;1.70;;;1.60;;
26908;SDS011;14477;51.038;4.588;2022-09-03T09:39:39;1.83;;;1.60;;
26908;SDS011;14477;51.038;4.588;2022-09-03T09:42:20;2.60;;;2.40;;
26908;SDS011;14477;51.038;4.588;2022-09-03T09:44:46;2.72;;;2.05;;
26908;SDS011;14477;51.038;4.588;2022-09-03T09:47:23;2.13;;;1.90;;
26908;SDS011;14477;51.038;4.588;2022-09-03T09:49:52;1.92;;;1.70;;
26908;SDS011;14477;51.038;4.588;2022-09-03T09:52:23;2.17;;;1.60;;
26908;SDS011;14477;51.038;4.588;2022-09-03T09:54:52;1.88;;;1.77;;
26908;SDS011;14477;51.038;4.588;2022-09-03T09:57:32;2.20;;;2.00;;
26908;SDS011;14477;51.038;4.588;2022-09-03T10:02:53;2.08;;;1.88;;
26908;SDS011;14477;51.038;4.588;2022-09-03T10:05:20;2.55;;;2.35;;
26908;SDS011;14477;51.038;4.588;2022-09-03T10:10:24;2.37;;;2.17;;
26908;SDS011;14477;51.038;4.588;2022-09-03T10:13:03;2.47;;;2.28;;
26908;SDS011;14477;51.038;4.588;2022-09-03T10:23:53;2.37;;;1.93;;
26908;SDS011;14477;51.038;4.588;2022-09-03T10:26:23;1.73;;;1.63;;
26908;SDS011;14477;51.038;4.588;2022-09-03T10:28:55;2.35;;;1.52;;
26908;SDS011;14477;51.038;4.588;2022-09-03T10:43:02;1.60;;;1.50;;
26908;SDS011;14477;51.038;4.588;2022-09-03T10:51:24;2.03;;;1.83;;
26908;SDS011;14477;51.038;4.588;2022-09-03T10:57:08;1.80;;;1.70;;
26908;SDS011;14477;51.038;4.588;2022-09-03T11:00:06;2.00;;;1.90;;
26908;SDS011;14477;51.038;4.588;2022-09-03T11:02:53;3.63;;;1.70;;
26908;SDS011;14477;51.038;4.588;2022-09-03T11:05:38;2.10;;;1.90;;
26908;SDS011;14477;51.038;4.588;2022-09-03T11:08:15;2.67;;;1.67;;
26908;SDS011;14477;51.038;4.588;2022-09-03T11:10:49;2.85;;;2.00;;
26908;SDS011;14477;51.038;4.588;2022-09-03T11:13:25;2.20;;;2.00;;
26908;SDS011;14477;51.038;4.588;2022-09-03T11:18:54;2.37;;;2.00;;
26908;SDS011;14477;51.038;4.588;2022-09-03T11:21:27;2.30;;;2.10;;
26908;SDS011;14477;51.038;4.588;2022-09-03T11:26:37;2.13;;;2.00;;
26908;SDS011;14477;51.038;4.588;2022-09-03T11:29:19;2.45;;;2.25;;
26908;SDS011;14477;51.038;4.588;2022-09-03T11:32:08;2.10;;;2.00;;
26908;SDS011;14477;51.038;4.588;2022-09-03T11:34:50;1.88;;;1.75;;
26908;SDS011;14477;51.038;4.588;2022-09-03T11:39:55;1.75;;;1.58;;
26908;SDS011;14477;51.038;4.588;2022-09-03T11:42:28;2.15;;;1.83;;
26908;SDS011;14477;51.038;4.588;2022-09-03T11:47:58;2.13;;;1.92;;
26908;SDS011;14477;51.038;4.588;2022-09-03T11:53:08;2.10;;;1.88;;
26908;SDS011;14477;51.038;4.588;2022-09-03T11:58:37;2.47;;;2.25;;
26908;SDS011;14477;51.038;4.588;2022-09-03T12:01:07;2.00;;;1.80;;
26908;SDS011;14477;51.038;4.588;2022-09-03T12:03:41;2.60;;;2.35;;
26908;SDS011;14477;51.038;4.588;2022-09-03T12:06:28;2.30;;;2.10;;
26908;SDS011;14477;51.038;4.588;2022-09-03T12:12:25;2.08;;;1.88;;
26908;SDS011;14477;51.038;4.588;2022-09-03T12:14:56;2.25;;;2.08;;
26908;SDS011;14477;51.038;4.588;2022-09-03T12:20:10;2.30;;;2.10;;
26908;SDS011;14477;51.038;4.588;2022-09-03T12:22:40;2.90;;;2.63;;
26908;SDS011;14477;51.038;4.588;2022-09-03T12:25:06;2.40;;;2.20;;
26908;SDS011;14477;51.038;4.588;2022-09-03T12:27:37;2.40;;;2.20;;
26908;SDS011;14477;51.038;4.588;2022-09-03T12:30:03;2.53;;;2.33;;
26908;SDS011;14477;51.038;4.588;2022-09-03T12:32:38;2.40;;;2.20;;
26908;SDS011;14477;51.038;4.588;2022-09-03T12:35:14;2.00;;;1.90;;
26908;SDS011;14477;51.038;4.588;2022-09-03T12:37:42;1.98;;;1.85;;
26908;SDS011;14477;51.038;4.588;2022-09-03T12:40:19;1.95;;;1.85;;
26908;SDS011;14477;51.038;4.588;2022-09-03T12:42:47;1.80;;;1.70;;
26908;SDS011;14477;51.038;4.588;2022-09-03T12:45:13;2.10;;;1.90;;
26908;SDS011;14477;51.038;4.588;2022-09-03T12:47:42;2.40;;;2.20;;
26908;SDS011;14477;51.038;4.588;2022-09-03T12:50:13;2.92;;;2.10;;
26908;SDS011;14477;51.038;4.588;2022-09-03T12:58:04;2.10;;;1.90;;
26908;SDS011;14477;51.038;4.588;2022-09-03T13:00:52;2.03;;;1.83;;
26908;SDS011;14477;51.038;4.588;2022-09-03T13:05:54;2.65;;;2.05;;
26908;SDS011;14477;51.038;4.588;2022-09-03T13:08:28;2.00;;;1.80;;
26908;SDS011;14477;51.038;4.588;2022-09-03T13:10:57;2.00;;;1.70;;
26908;SDS011;14477;51.038;4.588;2022-09-03T13:13:31;1.95;;;1.75;;
26908;SDS011;14477;51.038;4.588;2022-09-03T13:21:23;2.05;;;1.85;;
26908;SDS011;14477;51.038;4.588;2022-09-03T13:32:41;2.10;;;1.90;;
26908;SDS011;14477;51.038;4.588;2022-09-03T13:40:44;2.03;;;1.75;;
26908;SDS011;14477;51.038;4.588;2022-09-03T13:43:26;2.67;;;2.00;;
26908;SDS011;14477;51.038;4.588;2022-09-03T13:46:11;2.47;;;1.65;;
26908;SDS011;14477;51.038;4.588;2022-09-03T13:48:45;2.42;;;2.00;;
26908;SDS011;14477;51.038;4.588;2022-09-03T13:51:55;2.00;;;1.90;;
26908;SDS011;14477;51.038;4.588;2022-09-03T13:54:33;1.95;;;1.75;;
26908;SDS011;14477;51.038;4.588;2022-09-03T13:57:14;2.28;;;1.88;;
26908;SDS011;14477;51.038;4.588;2022-09-03T13:59:50;2.65;;;1.90;;
26908;SDS011;14477;51.038;4.588;2022-09-03T14:05:10;2.10;;;1.87;;
26908;SDS011;14477;51.038;4.588;2022-09-03T14:16:18;2.00;;;1.80;;
26908;SDS011;14477;51.038;4.588;2022-09-03T14:18:56;1.80;;;1.60;;
26908;SDS011;14477;51.038;4.588;2022-09-03T14:26:35;2.10;;;1.80;;
26908;SDS011;14477;51.038;4.588;2022-09-03T14:39:58;1.90;;;1.80;;
26908;SDS011;14477;51.038;4.588;2022-09-03T14:53:29;2.03;;;1.70;;
26908;SDS011;14477;51.038;4.588;2022-09-03T15:07:58;1.88;;;1.73;;
26908;SDS011;14477;51.038;4.588;2022-09-03T15:10:32;2.30;;;1.80;;
26908;SDS011;14477;51.038;4.588;2022-09-03T15:13:22;1.70;;;1.43;;
26908;SDS011;14477;51.038;4.588;2022-09-03T15:27:08;1.57;;;1.40;;
26908;SDS011;14477;51.038;4.588;2022-09-03T15:32:36;2.13;;;1.50;;
26908;SDS011;14477;51.038;4.588;2022-09-03T15:35:29;2.80;;;1.58;;
26908;SDS011;14477;51.038;4.588;2022-09-03T15:38:18;1.80;;;1.60;;
26908;SDS011;14477;51.038;4.588;2022-09-03T15:41:23;2.80;;;1.60;;
26908;SDS011;14477;51.038;4.588;2022-09-03T15:43:51;1.70;;;1.60;;
26908;SDS011;14477;51.038;4.588;2022-09-03T15:49:15;1.98;;;1.40;;
26908;SDS011;14477;51.038;4.588;2022-09-03T15:57:41;1.50;;;1.40;;
26908;SDS011;14477;51.038;4.588;2022-09-03T16:00:16;1.60;;;1.50;;
26908;SDS011;14477;51.038;4.588;2022-09-03T16:02:50;3.00;;;1.90;;
26908;SDS011;14477;51.038;4.588;2022-09-03T16:05:27;1.90;;;1.70;;
26908;SDS011;14477;51.038;4.588;2022-09-03T16:11:00;1.90;;;1.70;;
26908;SDS011;14477;51.038;4.588;2022-09-03T16:13:35;1.75;;;1.50;;
26908;SDS011;14477;51.038;4.588;2022-09-03T16:25:09;1.55;;;1.45;;
26908;SDS011;14477;51.038;4.588;2022-09-03T16:27:51;1.67;;;1.52;;
26908;SDS011;14477;51.038;4.588;2022-09-03T16:38:58;1.77;;;1.60;;
26908;SDS011;14477;51.038;4.588;2022-09-03T16:41:51;2.35;;;1.77;;
26908;SDS011;14477;51.038;4.588;2022-09-03T16:47:40;2.00;;;1.80;;
26908;SDS011;14477;51.038;4.588;2022-09-03T17:18:39;2.33;;;1.70;;
26908;SDS011;14477;51.038;4.588;2022-09-03T17:21:25;2.03;;;1.80;;
26908;SDS011;14477;51.038;4.588;2022-09-03T17:32:20;1.73;;;1.40;;
26908;SDS011;14477;51.038;4.588;2022-09-03T17:35:05;1.80;;;1.50;;
26908;SDS011;14477;51.038;4.588;2022-09-03T17:40:51;1.50;;;1.33;;
26908;SDS011;14477;51.038;4.588;2022-09-03T17:43:31;3.47;;;1.23;;
26908;SDS011;14477;51.038;4.588;2022-09-03T17:46:09;1.37;;;1.23;;
26908;SDS011;14477;51.038;4.588;2022-09-03T17:48:58;1.98;;;1.25;;
26908;SDS011;14477;51.038;4.588;2022-09-03T18:02:17;2.28;;;1.13;;
26908;SDS011;14477;51.038;4.588;2022-09-03T18:07:46;1.77;;;1.30;;
26908;SDS011;14477;51.038;4.588;2022-09-03T18:10:28;2.20;;;1.42;;
26908;SDS011;14477;51.038;4.588;2022-09-03T18:13:40;2.50;;;1.20;;
26908;SDS011;14477;51.038;4.588;2022-09-03T18:15:56;1.40;;;1.15;;
26908;SDS011;14477;51.038;4.588;2022-09-03T18:18:30;1.20;;;1.10;;
26908;SDS011;14477;51.038;4.588;2022-09-03T18:20:58;1.80;;;1.00;;
26908;SDS011;14477;51.038;4.588;2022-09-03T18:26:46;1.20;;;1.10;;
26908;SDS011;14477;51.038;4.588;2022-09-03T18:29:42;1.40;;;1.10;;
26908;SDS011;14477;51.038;4.588;2022-09-03T18:32:30;1.80;;;1.10;;
26908;SDS011;14477;51.038;4.588;2022-09-03T18:35:15;1.38;;;1.20;;
26908;SDS011;14477;51.038;4.588;2022-09-03T18:38:01;1.65;;;1.25;;
26908;SDS011;14477;51.038;4.588;2022-09-03T18:40:58;1.20;;;1.10;;
26908;SDS011;14477;51.038;4.588;2022-09-03T18:50:23;1.10;;;1.00;;
26908;SDS011;14477;51.038;4.588;2022-09-03T19:02:06;1.50;;;1.27;;
26908;SDS011;14477;51.038;4.588;2022-09-03T19:08:10;1.20;;;1.10;;
26908;SDS011;14477;51.038;4.588;2022-09-03T19:11:03;1.67;;;1.17;;
26908;SDS011;14477;51.038;4.588;2022-09-03T19:13:58;1.70;;;1.40;;
26908;SDS011;14477;51.038;4.588;2022-09-03T19:17:08;1.67;;;1.20;;
26908;SDS011;14477;51.038;4.588;2022-09-03T19:23:21;1.30;;;1.20;;
26908;SDS011;14477;51.038;4.588;2022-09-03T19:29:45;1.20;;;1.10;;
26908;SDS011;14477;51.038;4.588;2022-09-03T19:35:37;1.40;;;1.30;;
26908;SDS011;14477;51.038;4.588;2022-09-03T19:41:30;1.50;;;1.40;;
26908;SDS011;14477;51.038;4.588;2022-09-03T19:44:49;1.38;;;1.27;;
26908;SDS011;14477;51.038;4.588;2022-09-03T19:48:00;1.90;;;1.38;;
26908;SDS011;14477;51.038;4.588;2022-09-03T19:54:29;1.40;;;1.10;;
26908;SDS011;14477;51.038;4.588;2022-09-03T19:57:14;2.77;;;1.27;;
26908;SDS011;14477;51.038;4.588;2022-09-03T20:00:01;1.60;;;1.40;;
26908;SDS011;14477;51.038;4.588;2022-09-03T20:02:47;1.52;;;1.42;;
26908;SDS011;14477;51.038;4.588;2022-09-03T20:05:31;1.30;;;1.20;;
26908;SDS011;14477;51.038;4.588;2022-09-03T20:08:17;1.80;;;1.30;;
26908;SDS011;14477;51.038;4.588;2022-09-03T20:11:03;1.47;;;1.30;;
26908;SDS011;14477;51.038;4.588;2022-09-03T20:13:30;1.35;;;1.20;;
26908;SDS011;14477;51.038;4.588;2022-09-03T20:16:18;2.67;;;1.20;;
26908;SDS011;14477;51.038;4.588;2022-09-03T20:19:10;2.53;;;1.40;;
26908;SDS011;14477;51.038;4.588;2022-09-03T20:24:53;1.50;;;1.30;;
26908;SDS011;14477;51.038;4.588;2022-09-03T20:30:14;2.00;;;1.30;;
26908;SDS011;14477;51.038;4.588;2022-09-03T20:33:03;1.40;;;1.30;;
26908;SDS011;14477;51.038;4.588;2022-09-03T20:35:36;1.67;;;1.50;;
26908;SDS011;14477;51.038;4.588;2022-09-03T20:43:42;1.83;;;1.40;;
26908;SDS011;14477;51.038;4.588;2022-09-03T20:51:24;1.85;;;1.50;;
26908;SDS011;14477;51.038;4.588;2022-09-03T20:54:05;2.10;;;1.58;;
26908;SDS011;14477;51.038;4.588;2022-09-03T20:59:14;2.67;;;1.60;;
26908;SDS011;14477;51.038;4.588;2022-09-03T21:04:27;2.05;;;1.73;;
26908;SDS011;14477;51.038;4.588;2022-09-03T21:18:08;2.08;;;1.60;;
26908;SDS011;14477;51.038;4.588;2022-09-03T21:21:01;2.10;;;1.60;;
26908;SDS011;14477;51.038;4.588;2022-09-03T21:23:48;2.35;;;1.58;;
26908;SDS011;14477;51.038;4.588;2022-09-03T21:26:29;1.70;;;1.40;;
26908;SDS011;14477;51.038;4.588;2022-09-03T21:31:30;2.40;;;1.60;;
26908;SDS011;14477;51.038;4.588;2022-09-03T21:34:17;2.38;;;1.60;;
26908;SDS011;14477;51.038;4.588;2022-09-03T21:36:48;2.13;;;1.60;;
26908;SDS011;14477;51.038;4.588;2022-09-03T21:39:18;1.97;;;1.50;;
26908;SDS011;14477;51.038;4.588;2022-09-03T21:47:05;2.15;;;1.50;;
26908;SDS011;14477;51.038;4.588;2022-09-03T21:49:40;2.13;;;1.50;;
26908;SDS011;14477;51.038;4.588;2022-09-03T21:52:14;2.60;;;1.40;;
26908;SDS011;14477;51.038;4.588;2022-09-03T21:54:43;1.70;;;1.40;;
26908;SDS011;14477;51.038;4.588;2022-09-03T22:04:45;1.90;;;1.42;;